Terminal Aerodrome Forecast
Issued by NWS Charleston, WV

Current Version | Previous Version | Text Only | Print | Product List | Glossary Off
Versions: 1 2 3 4 5 6 7 8 9 10 11 12 13 14 15 16 17 18 19 20 21 22 23 24 25

000
FTUS41 KRLX 041700 RRA
TAFEKN
TAF
KEKN 041756Z 0418/0518 VRB03KT 5SM -RA SCT015 OVC025
     FM042100 33003KT 4SM -RA BR OVC015
     FM050400 33008KT 3SM -PL BR OVC008
     FM050500 33008KT 2SM -SNPL BR OVC006
     FM050600 35007KT 1/2SM SN FG OVC004
     FM051300 34006KT 2SM -SN BR OVC008=

USA.gov is the U.S. government's official web portal to all federal, state and local government web resources and services.